Карточка аэропорта UUDD

Внимание!
Информация на этой странице в стадии наполнения.
Если вы не увидели какой-то информации, или заметили неточность - пожалуйста сообщите нам!
Спасибо!
Команда RU-STAFF
Название аэропортаДомодедово
Название аэропорта (англ.)Domodedovo
Превышение594 ft. (181.1 m.)
Координаты55°24.516', 37°54.384'
Высота перехода10000 ft
Эшелон переходаQNH>=1013hPa:FL110; QNH<1013hPa:FL120; QNH<977hPa:FL130
Коды ответчика1540-1577
Зона ОрВДМосква РПИ (UUWV)
Данные METARUUDD 121230Z 16004MPS 140V210 CAVOK 28/11 Q1019 R14R/CLRD60 NOSIG
Проноз погоды (TAF)UUDD 121052Z 1212/1318 16003MPS 9999 SCT040 TX30/1212Z TN16/1301Z BECMG 1304/1306 23005MPS PROB40 TEMPO 1306/1318 -TSRA BKN020CB
NOTAMshow/hide NOTAM
AWOS   TABLE

Информация о ВПП

ВПП Длина ВПП (м.) Покрытие Курс ВПП Частота ILS
14L2370Железобетон135 
32R2370Железобетон315 
143800Цементобетон135108.5
32L3500Цементобетон315109.3
14R3500Цементобетон135110.1
323800Цементобетон315111.9

Диспетчерские позиции

Позывной Наименование органа УВД Частота
UUDD_GNDДомодедово-Перрон119.000
UUDD_R_APPДомодедово-Круг127.700
UUDD_R_APPДомодедово-Круг132.050
UUDD_R_APPДомодедово-Круг119.400
UUDD_R_APPДомодедово-Круг125.300
UUDD_R_APPДомодедово-Круг129.800
UUDD_R_APPДомодедово-Круг134.675
UUDD_DELДомодедово-Деливери129.150
UUDD_TWRДомодедово-Вышка118.600
UUDD_TWRДомодедово-Вышка119.700
UUDD_TWRДомодедово-Вышка127.300



Спутниковое изображение